sensor_id;sensor_type;location;lat;lon;timestamp;pressure;altitude;pressure_sealevel;temperature;humidity
64200;BME280;50516;52.272;5.136;2023-06-26T00:02:19;101199.72;;;25.61;55.28
64200;BME280;50516;52.272;5.136;2023-06-26T00:04:47;101207.25;;;25.57;55.18
64200;BME280;50516;52.272;5.136;2023-06-26T00:07:13;101200.09;;;25.60;55.20
64200;BME280;50516;52.272;5.136;2023-06-26T00:09:38;101198.75;;;25.54;55.92
64200;BME280;50516;52.272;5.136;2023-06-26T00:12:04;101191.56;;;25.56;55.72
64200;BME280;50516;52.272;5.136;2023-06-26T00:14:29;101195.56;;;25.55;56.00
64200;BME280;50516;52.272;5.136;2023-06-26T00:16:55;101187.94;;;25.56;56.22
64200;BME280;50516;52.272;5.136;2023-06-26T00:19:20;101182.03;;;25.61;56.00
64200;BME280;50516;52.272;5.136;2023-06-26T00:21:46;101183.59;;;25.58;56.40
64200;BME280;50516;52.272;5.136;2023-06-26T00:24:16;101179.88;;;25.54;56.29
64200;BME280;50516;52.272;5.136;2023-06-26T00:26:44;101170.25;;;25.55;56.47
64200;BME280;50516;52.272;5.136;2023-06-26T00:29:09;101176.25;;;25.54;56.90
64200;BME280;50516;52.272;5.136;2023-06-26T00:31:35;101175.88;;;25.55;56.37
64200;BME280;50516;52.272;5.136;2023-06-26T00:34:03;101165.81;;;25.54;56.89
64200;BME280;50516;52.272;5.136;2023-06-26T00:36:29;101159.75;;;25.52;57.22
64200;BME280;50516;52.272;5.136;2023-06-26T00:38:57;101158.41;;;25.46;57.37
64200;BME280;50516;52.272;5.136;2023-06-26T00:41:23;101172.81;;;25.44;57.38
64200;BME280;50516;52.272;5.136;2023-06-26T00:43:48;101175.91;;;25.39;57.81
64200;BME280;50516;52.272;5.136;2023-06-26T00:46:14;101179.09;;;25.38;58.03
64200;BME280;50516;52.272;5.136;2023-06-26T00:48:44;101180.81;;;25.26;58.73
64200;BME280;50516;52.272;5.136;2023-06-26T00:51:16;101181.09;;;25.21;59.04
64200;BME280;50516;52.272;5.136;2023-06-26T00:53:44;101194.59;;;25.15;59.57
64200;BME280;50516;52.272;5.136;2023-06-26T00:56:10;101194.66;;;25.19;59.38
64200;BME280;50516;52.272;5.136;2023-06-26T00:58:36;101199.47;;;25.19;59.77
64200;BME280;50516;52.272;5.136;2023-06-26T01:01:02;101196.94;;;25.13;60.14
64200;BME280;50516;52.272;5.136;2023-06-26T01:03:28;101199.97;;;25.05;60.59
64200;BME280;50516;52.272;5.136;2023-06-26T01:05:56;101206.91;;;24.95;60.62
64200;BME280;50516;52.272;5.136;2023-06-26T01:08:24;101210.00;;;24.90;61.20
64200;BME280;50516;52.272;5.136;2023-06-26T01:10:50;101215.16;;;24.72;61.98
64200;BME280;50516;52.272;5.136;2023-06-26T01:13:17;101219.94;;;24.43;62.06
64200;BME280;50516;52.272;5.136;2023-06-26T01:15:43;101219.03;;;24.39;62.30
64200;BME280;50516;52.272;5.136;2023-06-26T01:18:08;101226.22;;;24.52;61.03
64200;BME280;50516;52.272;5.136;2023-06-26T01:20:36;101232.09;;;24.47;61.48
64200;BME280;50516;52.272;5.136;2023-06-26T01:23:24;101228.84;;;24.45;61.54
64200;BME280;50516;52.272;5.136;2023-06-26T01:28:33;101242.50;;;24.18;62.33
64200;BME280;50516;52.272;5.136;2023-06-26T01:31:00;101232.69;;;24.12;61.41
64200;BME280;50516;52.272;5.136;2023-06-26T01:33:26;101237.16;;;24.13;61.04
64200;BME280;50516;52.272;5.136;2023-06-26T01:35:52;101233.09;;;23.98;61.25
64200;BME280;50516;52.272;5.136;2023-06-26T01:38:20;101234.88;;;23.91;61.48
64200;BME280;50516;52.272;5.136;2023-06-26T01:40:48;101233.09;;;23.74;61.54
64200;BME280;50516;52.272;5.136;2023-06-26T01:43:53;101218.19;;;23.57;62.51
64200;BME280;50516;52.272;5.136;2023-06-26T01:52:18;101219.56;;;23.76;62.58
64200;BME280;50516;52.272;5.136;2023-06-26T01:55:05;101214.44;;;23.90;62.19
64200;BME280;50516;52.272;5.136;2023-06-26T01:57:35;101221.31;;;23.80;62.23
64200;BME280;50516;52.272;5.136;2023-06-26T02:00:02;101221.09;;;23.73;62.57
64200;BME280;50516;52.272;5.136;2023-06-26T02:02:29;101234.91;;;23.54;63.05
64200;BME280;50516;52.272;5.136;2023-06-26T02:04:57;101233.94;;;23.49;63.62
64200;BME280;50516;52.272;5.136;2023-06-26T02:07:23;101240.88;;;23.27;64.39
64200;BME280;50516;52.272;5.136;2023-06-26T02:09:52;101239.81;;;23.44;64.04
64200;BME280;50516;52.272;5.136;2023-06-26T02:12:17;101232.59;;;23.43;64.43
64200;BME280;50516;52.272;5.136;2023-06-26T02:14:43;101221.59;;;23.26;64.78
64200;BME280;50516;52.272;5.136;2023-06-26T02:17:09;101223.22;;;23.27;64.95
64200;BME280;50516;52.272;5.136;2023-06-26T02:19:35;101232.69;;;23.22;65.36
64200;BME280;50516;52.272;5.136;2023-06-26T02:22:01;101233.03;;;23.21;65.58
64200;BME280;50516;52.272;5.136;2023-06-26T02:24:27;101243.53;;;23.24;65.47
64200;BME280;50516;52.272;5.136;2023-06-26T02:26:56;101229.94;;;23.01;66.36
64200;BME280;50516;52.272;5.136;2023-06-26T02:29:22;101237.94;;;23.11;66.13
64200;BME280;50516;52.272;5.136;2023-06-26T02:31:48;101231.34;;;22.95;66.87
64200;BME280;50516;52.272;5.136;2023-06-26T02:34:14;101244.84;;;22.93;66.96
64200;BME280;50516;52.272;5.136;2023-06-26T02:36:40;101252.34;;;22.89;67.35
64200;BME280;50516;52.272;5.136;2023-06-26T02:39:09;101246.53;;;23.06;66.93
64200;BME280;50516;52.272;5.136;2023-06-26T02:41:35;101252.41;;;23.13;66.76
64200;BME280;50516;52.272;5.136;2023-06-26T02:44:04;101245.81;;;22.97;67.38
64200;BME280;50516;52.272;5.136;2023-06-26T02:46:30;101245.69;;;22.93;67.51
64200;BME280;50516;52.272;5.136;2023-06-26T02:48:56;101257.25;;;22.92;67.63
64200;BME280;50516;52.272;5.136;2023-06-26T02:51:21;101255.94;;;22.77;67.91
64200;BME280;50516;52.272;5.136;2023-06-26T02:53:50;101254.34;;;22.67;68.37
64200;BME280;50516;52.272;5.136;2023-06-26T02:56:16;101251.38;;;22.72;67.99
64200;BME280;50516;52.272;5.136;2023-06-26T02:58:41;101242.06;;;22.81;67.88
64200;BME280;50516;52.272;5.136;2023-06-26T03:01:07;101262.09;;;22.83;67.95
64200;BME280;50516;52.272;5.136;2023-06-26T03:03:33;101256.03;;;22.81;68.01
64200;BME280;50516;52.272;5.136;2023-06-26T03:06:06;101251.09;;;22.65;68.12
64200;BME280;50516;52.272;5.136;2023-06-26T03:08:36;101260.75;;;22.55;68.56
64200;BME280;50516;52.272;5.136;2023-06-26T03:11:02;101256.56;;;22.61;68.60
64200;BME280;50516;52.272;5.136;2023-06-26T03:13:28;101259.31;;;22.49;68.90
64200;BME280;50516;52.272;5.136;2023-06-26T03:15:54;101255.03;;;22.52;68.69
64200;BME280;50516;52.272;5.136;2023-06-26T03:18:20;101262.09;;;22.49;68.58
64200;BME280;50516;52.272;5.136;2023-06-26T03:20:45;101266.56;;;22.50;68.64
64200;BME280;50516;52.272;5.136;2023-06-26T03:23:11;101278.38;;;22.35;69.19
64200;BME280;50516;52.272;5.136;2023-06-26T03:25:36;101293.84;;;22.53;69.02
64200;BME280;50516;52.272;5.136;2023-06-26T03:28:01;101289.34;;;22.61;68.96
64200;BME280;50516;52.272;5.136;2023-06-26T03:30:27;101288.13;;;22.50;69.19
64200;BME280;50516;52.272;5.136;2023-06-26T03:32:53;101285.13;;;22.34;69.68
64200;BME280;50516;52.272;5.136;2023-06-26T03:35:19;101295.09;;;22.43;69.65
64200;BME280;50516;52.272;5.136;2023-06-26T03:37:44;101300.47;;;22.49;69.28
64200;BME280;50516;52.272;5.136;2023-06-26T03:40:12;101296.00;;;22.27;69.91
64200;BME280;50516;52.272;5.136;2023-06-26T03:42:38;101290.69;;;22.13;70.23
64200;BME280;50516;52.272;5.136;2023-06-26T03:45:04;101302.81;;;22.17;70.26
64200;BME280;50516;52.272;5.136;2023-06-26T03:47:33;101307.19;;;22.27;69.48
64200;BME280;50516;52.272;5.136;2023-06-26T03:49:59;101305.88;;;22.33;69.82
64200;BME280;50516;52.272;5.136;2023-06-26T03:52:26;101306.97;;;22.40;68.96
64200;BME280;50516;52.272;5.136;2023-06-26T03:54:51;101302.72;;;22.34;69.26
64200;BME280;50516;52.272;5.136;2023-06-26T03:57:17;101316.50;;;22.39;69.54
64200;BME280;50516;52.272;5.136;2023-06-26T03:59:42;101314.00;;;22.47;68.98
64200;BME280;50516;52.272;5.136;2023-06-26T04:02:07;101318.63;;;22.42;68.88
64200;BME280;50516;52.272;5.136;2023-06-26T04:04:33;101324.69;;;22.45;69.07
64200;BME280;50516;52.272;5.136;2023-06-26T04:06:58;101322.94;;;22.40;69.31
64200;BME280;50516;52.272;5.136;2023-06-26T04:09:27;101327.69;;;22.39;69.40
64200;BME280;50516;52.272;5.136;2023-06-26T04:11:52;101327.84;;;22.43;69.35
64200;BME280;50516;52.272;5.136;2023-06-26T04:14:18;101325.66;;;22.49;68.88
64200;BME280;50516;52.272;5.136;2023-06-26T04:16:43;101320.31;;;22.56;68.74
64200;BME280;50516;52.272;5.136;2023-06-26T04:19:09;101321.84;;;22.53;68.83
64200;BME280;50516;52.272;5.136;2023-06-26T04:21:35;101331.72;;;22.51;68.82
64200;BME280;50516;52.272;5.136;2023-06-26T04:24:01;101340.13;;;22.51;68.61
64200;BME280;50516;52.272;5.136;2023-06-26T04:26:26;101344.81;;;22.38;69.00
64200;BME280;50516;52.272;5.136;2023-06-26T04:28:53;101354.72;;;22.35;68.77
64200;BME280;50516;52.272;5.136;2023-06-26T04:31:18;101358.88;;;22.29;68.87
64200;BME280;50516;52.272;5.136;2023-06-26T04:33:44;101365.25;;;22.38;68.66
64200;BME280;50516;52.272;5.136;2023-06-26T04:36:09;101368.38;;;22.58;67.55
64200;BME280;50516;52.272;5.136;2023-06-26T04:38:34;101360.00;;;22.58;67.20
64200;BME280;50516;52.272;5.136;2023-06-26T04:41:00;101368.16;;;22.63;67.31
64200;BME280;50516;52.272;5.136;2023-06-26T04:43:26;101372.75;;;22.68;66.67
64200;BME280;50516;52.272;5.136;2023-06-26T04:45:51;101381.47;;;22.87;65.68
64200;BME280;50516;52.272;5.136;2023-06-26T04:48:17;101383.47;;;22.87;65.79
64200;BME280;50516;52.272;5.136;2023-06-26T04:50:42;101390.09;;;22.61;66.04
64200;BME280;50516;52.272;5.136;2023-06-26T04:53:08;101389.81;;;22.54;66.42
64200;BME280;50516;52.272;5.136;2023-06-26T04:55:33;101389.41;;;22.85;65.78
64200;BME280;50516;52.272;5.136;2023-06-26T04:57:59;101377.28;;;23.14;64.19
64200;BME280;50516;52.272;5.136;2023-06-26T05:00:24;101379.69;;;23.37;63.31
64200;BME280;50516;52.272;5.136;2023-06-26T05:02:51;101389.28;;;23.48;62.95
64200;BME280;50516;52.272;5.136;2023-06-26T05:05:25;101398.88;;;23.60;62.97
64200;BME280;50516;52.272;5.136;2023-06-26T05:07:52;101390.81;;;23.70;61.88
64200;BME280;50516;52.272;5.136;2023-06-26T05:10:18;101392.09;;;23.73;61.78
64200;BME280;50516;52.272;5.136;2023-06-26T05:12:43;101398.97;;;23.63;62.32
64200;BME280;50516;52.272;5.136;2023-06-26T05:15:09;101390.75;;;23.92;61.80
64200;BME280;50516;52.272;5.136;2023-06-26T05:17:34;101400.78;;;24.05;60.92
64200;BME280;50516;52.272;5.136;2023-06-26T05:19:59;101394.00;;;24.06;60.74
64200;BME280;50516;52.272;5.136;2023-06-26T05:22:26;101401.25;;;24.19;60.68
64200;BME280;50516;52.272;5.136;2023-06-26T05:24:54;101404.28;;;24.27;59.93
64200;BME280;50516;52.272;5.136;2023-06-26T05:27:20;101401.38;;;24.23;59.31
64200;BME280;50516;52.272;5.136;2023-06-26T05:29:47;101408.50;;;24.08;59.33
64200;BME280;50516;52.272;5.136;2023-06-26T05:32:15;101414.78;;;24.17;59.11
64200;BME280;50516;52.272;5.136;2023-06-26T05:34:48;101423.56;;;24.40;58.46
64200;BME280;50516;52.272;5.136;2023-06-26T05:37:20;101424.00;;;24.55;58.24
64200;BME280;50516;52.272;5.136;2023-06-26T05:39:47;101420.53;;;24.58;57.88
64200;BME280;50516;52.272;5.136;2023-06-26T05:42:12;101417.59;;;24.30;57.92
64200;BME280;50516;52.272;5.136;2023-06-26T05:44:38;101431.84;;;24.49;57.53
64200;BME280;50516;52.272;5.136;2023-06-26T05:47:03;101435.13;;;24.39;57.41
64200;BME280;50516;52.272;5.136;2023-06-26T05:49:29;101454.31;;;24.62;57.37
64200;BME280;50516;52.272;5.136;2023-06-26T05:51:54;101448.56;;;24.70;57.18
64200;BME280;50516;52.272;5.136;2023-06-26T05:54:20;101452.19;;;24.71;57.21
64200;BME280;50516;52.272;5.136;2023-06-26T05:56:47;101452.88;;;24.55;56.89
64200;BME280;50516;52.272;5.136;2023-06-26T05:59:14;101459.69;;;24.67;57.13
64200;BME280;50516;52.272;5.136;2023-06-26T06:01:40;101466.53;;;24.82;56.88
64200;BME280;50516;52.272;5.136;2023-06-26T06:04:06;101469.47;;;24.85;57.21
64200;BME280;50516;52.272;5.136;2023-06-26T06:06:32;101476.06;;;25.18;56.38
64200;BME280;50516;52.272;5.136;2023-06-26T06:08:57;101472.63;;;24.84;56.61
64200;BME280;50516;52.272;5.136;2023-06-26T06:11:22;101478.38;;;24.75;56.92
64200;BME280;50516;52.272;5.136;2023-06-26T06:13:48;101490.50;;;25.04;56.25
64200;BME280;50516;52.272;5.136;2023-06-26T06:16:15;101482.06;;;25.04;56.48
64200;BME280;50516;52.272;5.136;2023-06-26T06:18:40;101484.00;;;24.75;56.65
64200;BME280;50516;52.272;5.136;2023-06-26T06:21:05;101482.38;;;24.49;58.12
64200;BME280;50516;52.272;5.136;2023-06-26T06:23:31;101488.22;;;24.81;57.30
64200;BME280;50516;52.272;5.136;2023-06-26T06:25:56;101501.88;;;25.36;55.95
64200;BME280;50516;52.272;5.136;2023-06-26T06:28:21;101511.66;;;25.42;56.07
64200;BME280;50516;52.272;5.136;2023-06-26T06:30:50;101519.38;;;25.29;56.26
64200;BME280;50516;52.272;5.136;2023-06-26T06:33:15;101520.50;;;24.87;57.04
64200;BME280;50516;52.272;5.136;2023-06-26T06:35:40;101519.28;;;25.01;55.89
64200;BME280;50516;52.272;5.136;2023-06-26T06:38:06;101526.50;;;25.14;55.41
64200;BME280;50516;52.272;5.136;2023-06-26T06:40:31;101536.75;;;25.47;55.59
64200;BME280;50516;52.272;5.136;2023-06-26T06:42:57;101537.25;;;25.65;54.92
64200;BME280;50516;52.272;5.136;2023-06-26T06:45:25;101537.72;;;25.26;55.48
64200;BME280;50516;52.272;5.136;2023-06-26T06:47:50;101534.75;;;24.94;57.16
64200;BME280;50516;52.272;5.136;2023-06-26T06:50:18;101537.09;;;24.55;56.69
64200;BME280;50516;52.272;5.136;2023-06-26T06:52:44;101543.69;;;24.59;57.50
64200;BME280;50516;52.272;5.136;2023-06-26T06:55:10;101549.50;;;24.91;56.44
64200;BME280;50516;52.272;5.136;2023-06-26T06:57:36;101546.94;;;24.99;55.42
64200;BME280;50516;52.272;5.136;2023-06-26T07:00:08;101555.72;;;24.97;56.19
64200;BME280;50516;52.272;5.136;2023-06-26T07:02:38;101558.72;;;25.29;55.37
64200;BME280;50516;52.272;5.136;2023-06-26T07:05:05;101554.16;;;25.12;56.33
64200;BME280;50516;52.272;5.136;2023-06-26T07:07:31;101555.56;;;25.06;56.93
64200;BME280;50516;52.272;5.136;2023-06-26T07:10:12;101559.03;;;25.68;55.80
64200;BME280;50516;52.272;5.136;2023-06-26T07:12:38;101567.91;;;25.42;55.87
64200;BME280;50516;52.272;5.136;2023-06-26T07:15:04;101566.09;;;25.09;55.54
64200;BME280;50516;52.272;5.136;2023-06-26T07:17:34;101556.41;;;25.47;55.62
64200;BME280;50516;52.272;5.136;2023-06-26T07:20:00;101560.69;;;25.28;56.39
64200;BME280;50516;52.272;5.136;2023-06-26T07:22:29;101563.66;;;25.48;54.92
64200;BME280;50516;52.272;5.136;2023-06-26T07:24:54;101564.47;;;25.77;54.72
64200;BME280;50516;52.272;5.136;2023-06-26T07:27:20;101571.94;;;26.29;53.78
64200;BME280;50516;52.272;5.136;2023-06-26T07:29:46;101575.25;;;25.46;54.96
64200;BME280;50516;52.272;5.136;2023-06-26T07:32:11;101575.47;;;25.54;53.83
64200;BME280;50516;52.272;5.136;2023-06-26T07:34:39;101579.91;;;25.83;53.00
64200;BME280;50516;52.272;5.136;2023-06-26T07:37:05;101585.91;;;25.53;54.11
64200;BME280;50516;52.272;5.136;2023-06-26T07:39:30;101578.44;;;25.45;54.50
64200;BME280;50516;52.272;5.136;2023-06-26T07:41:56;101586.09;;;25.88;54.14
64200;BME280;50516;52.272;5.136;2023-06-26T07:44:23;101581.56;;;25.84;54.39
64200;BME280;50516;52.272;5.136;2023-06-26T07:46:48;101591.00;;;25.92;53.28
64200;BME280;50516;52.272;5.136;2023-06-26T07:49:14;101597.47;;;25.92;53.31
64200;BME280;50516;52.272;5.136;2023-06-26T07:51:39;101598.25;;;26.21;52.17
64200;BME280;50516;52.272;5.136;2023-06-26T07:54:05;101602.69;;;26.06;53.13
64200;BME280;50516;52.272;5.136;2023-06-26T07:56:30;101601.00;;;25.89;52.66
64200;BME280;50516;52.272;5.136;2023-06-26T07:58:55;101609.22;;;25.54;53.65
64200;BME280;50516;52.272;5.136;2023-06-26T08:01:24;101609.84;;;25.75;53.31
64200;BME280;50516;52.272;5.136;2023-06-26T08:03:49;101612.13;;;25.57;52.21
64200;BME280;50516;52.272;5.136;2023-06-26T08:06:15;101607.53;;;25.00;54.59
64200;BME280;50516;52.272;5.136;2023-06-26T08:08:40;101614.41;;;25.39;53.28
64200;BME280;50516;52.272;5.136;2023-06-26T08:11:06;101619.56;;;25.78;52.47
64200;BME280;50516;52.272;5.136;2023-06-26T08:13:33;101619.41;;;26.15;51.48
64200;BME280;50516;52.272;5.136;2023-06-26T08:15:59;101628.16;;;25.16;53.11
64200;BME280;50516;52.272;5.136;2023-06-26T08:18:24;101630.69;;;25.46;52.64
64200;BME280;50516;52.272;5.136;2023-06-26T08:20:49;101623.22;;;25.66;52.29
64200;BME280;50516;52.272;5.136;2023-06-26T08:23:15;101633.81;;;25.85;51.77
64200;BME280;50516;52.272;5.136;2023-06-26T08:25:40;101633.53;;;26.02;51.67
64200;BME280;50516;52.272;5.136;2023-06-26T08:28:05;101630.28;;;25.60;51.93
64200;BME280;50516;52.272;5.136;2023-06-26T08:30:32;101634.84;;;24.74;52.63
64200;BME280;50516;52.272;5.136;2023-06-26T08:32:57;101637.00;;;25.43;51.63
64200;BME280;50516;52.272;5.136;2023-06-26T08:35:23;101643.38;;;25.27;51.91
64200;BME280;50516;52.272;5.136;2023-06-26T08:37:48;101641.91;;;25.58;50.98
64200;BME280;50516;52.272;5.136;2023-06-26T08:40:17;101646.50;;;25.79;50.86
64200;BME280;50516;52.272;5.136;2023-06-26T08:42:44;101644.75;;;25.33;52.20
64200;BME280;50516;52.272;5.136;2023-06-26T08:45:09;101650.97;;;25.02;53.00
64200;BME280;50516;52.272;5.136;2023-06-26T08:47:35;101652.78;;;25.88;50.80
64200;BME280;50516;52.272;5.136;2023-06-26T08:50:12;101649.47;;;26.27;50.38
64200;BME280;50516;52.272;5.136;2023-06-26T08:55:16;101665.72;;;25.77;51.38
64200;BME280;50516;52.272;5.136;2023-06-26T08:57:43;101664.69;;;25.16;51.58
64200;BME280;50516;52.272;5.136;2023-06-26T09:00:09;101674.25;;;25.52;50.76
64200;BME280;50516;52.272;5.136;2023-06-26T09:02:39;101670.16;;;25.25;51.80
64200;BME280;50516;52.272;5.136;2023-06-26T09:05:05;101668.81;;;25.72;50.48
64200;BME280;50516;52.272;5.136;2023-06-26T09:07:30;101667.56;;;25.85;49.89
64200;BME280;50516;52.272;5.136;2023-06-26T09:09:55;101671.63;;;26.28;49.28
64200;BME280;50516;52.272;5.136;2023-06-26T09:12:21;101677.31;;;25.87;50.17
64200;BME280;50516;52.272;5.136;2023-06-26T09:14:47;101674.84;;;25.86;49.72
64200;BME280;50516;52.272;5.136;2023-06-26T09:17:13;101683.75;;;25.47;49.48
64200;BME280;50516;52.272;5.136;2023-06-26T09:19:38;101687.53;;;25.80;49.59
64200;BME280;50516;52.272;5.136;2023-06-26T09:22:04;101685.66;;;26.12;49.01
64200;BME280;50516;52.272;5.136;2023-06-26T09:24:30;101693.97;;;26.37;47.46
64200;BME280;50516;52.272;5.136;2023-06-26T09:26:58;101687.16;;;26.22;47.34
64200;BME280;50516;52.272;5.136;2023-06-26T09:29:23;101698.59;;;25.60;47.37
64200;BME280;50516;52.272;5.136;2023-06-26T09:31:51;101699.56;;;25.15;48.74
64200;BME280;50516;52.272;5.136;2023-06-26T09:34:17;101704.03;;;25.81;47.66
64200;BME280;50516;52.272;5.136;2023-06-26T09:36:42;101704.69;;;25.25;48.86
64200;BME280;50516;52.272;5.136;2023-06-26T09:39:14;101702.38;;;25.52;48.26
64200;BME280;50516;52.272;5.136;2023-06-26T09:41:43;101702.56;;;25.59;48.57
64200;BME280;50516;52.272;5.136;2023-06-26T09:44:11;101710.56;;;25.57;47.09
64200;BME280;50516;52.272;5.136;2023-06-26T09:46:40;101711.59;;;25.65;46.55
64200;BME280;50516;52.272;5.136;2023-06-26T09:49:10;101722.88;;;25.93;46.56
64200;BME280;50516;52.272;5.136;2023-06-26T09:51:38;101733.06;;;25.45;46.98
64200;BME280;50516;52.272;5.136;2023-06-26T09:54:05;101726.97;;;24.93;47.62
64200;BME280;50516;52.272;5.136;2023-06-26T09:56:34;101728.16;;;25.29;46.21
64200;BME280;50516;52.272;5.136;2023-06-26T09:59:01;101734.06;;;24.45;46.17
64200;BME280;50516;52.272;5.136;2023-06-26T10:01:27;101741.66;;;24.78;45.81
64200;BME280;50516;52.272;5.136;2023-06-26T10:03:54;101734.97;;;24.70;45.75
64200;BME280;50516;52.272;5.136;2023-06-26T10:06:32;101745.09;;;25.08;45.50
64200;BME280;50516;52.272;5.136;2023-06-26T10:09:00;101744.09;;;25.50;45.13
64200;BME280;50516;52.272;5.136;2023-06-26T10:11:32;101763.22;;;25.85;44.42
64200;BME280;50516;52.272;5.136;2023-06-26T10:14:04;101747.66;;;24.89;45.49
64200;BME280;50516;52.272;5.136;2023-06-26T10:16:31;101753.41;;;25.05;45.83
64200;BME280;50516;52.272;5.136;2023-06-26T10:19:01;101752.59;;;24.92;45.48
64200;BME280;50516;52.272;5.136;2023-06-26T10:21:29;101761.41;;;25.52;45.36
64200;BME280;50516;52.272;5.136;2023-06-26T10:23:59;101771.31;;;25.12;45.51
64200;BME280;50516;52.272;5.136;2023-06-26T10:26:26;101779.22;;;25.44;44.33
64200;BME280;50516;52.272;5.136;2023-06-26T10:28:54;101774.53;;;25.36;45.80
64200;BME280;50516;52.272;5.136;2023-06-26T10:31:25;101773.34;;;25.37;44.39
64200;BME280;50516;52.272;5.136;2023-06-26T10:33:52;101764.44;;;25.10;45.71
64200;BME280;50516;52.272;5.136;2023-06-26T10:36:19;101771.16;;;24.96;45.68
64200;BME280;50516;52.272;5.136;2023-06-26T10:38:58;101774.31;;;25.41;45.15
64200;BME280;50516;52.272;5.136;2023-06-26T10:41:25;101772.88;;;25.72;45.11
64200;BME280;50516;52.272;5.136;2023-06-26T10:44:11;101784.94;;;26.25;44.26
64200;BME280;50516;52.272;5.136;2023-06-26T10:46:56;101781.06;;;26.30;43.67
64200;BME280;50516;52.272;5.136;2023-06-26T10:49:29;101778.00;;;26.35;44.17
64200;BME280;50516;52.272;5.136;2023-06-26T10:51:55;101777.66;;;26.81;43.05
64200;BME280;50516;52.272;5.136;2023-06-26T10:54:29;101781.47;;;26.16;44.00
64200;BME280;50516;52.272;5.136;2023-06-26T10:56:55;101785.13;;;26.04;43.24
64200;BME280;50516;52.272;5.136;2023-06-26T10:59:26;101788.47;;;25.57;44.62
64200;BME280;50516;52.272;5.136;2023-06-26T11:01:56;101792.09;;;25.69;44.19
64200;BME280;50516;52.272;5.136;2023-06-26T11:04:39;101808.69;;;25.87;42.90
64200;BME280;50516;52.272;5.136;2023-06-26T11:07:34;101804.16;;;25.33;43.68
64200;BME280;50516;52.272;5.136;2023-06-26T11:12:40;101805.94;;;25.50;43.54
64200;BME280;50516;52.272;5.136;2023-06-26T11:15:13;101809.06;;;26.38;41.75
64200;BME280;50516;52.272;5.136;2023-06-26T11:17:40;101806.38;;;26.70;42.00
64200;BME280;50516;52.272;5.136;2023-06-26T11:20:08;101813.00;;;26.50;41.53
64200;BME280;50516;52.272;5.136;2023-06-26T11:22:35;101814.59;;;25.69;41.76
64200;BME280;50516;52.272;5.136;2023-06-26T11:25:05;101819.94;;;25.25;42.87
64200;BME280;50516;52.272;5.136;2023-06-26T11:27:43;101816.25;;;25.58;42.08
64200;BME280;50516;52.272;5.136;2023-06-26T11:30:21;101817.97;;;25.26;41.93
64200;BME280;50516;52.272;5.136;2023-06-26T11:32:50;101820.09;;;25.41;43.44
64200;BME280;50516;52.272;5.136;2023-06-26T11:35:25;101818.56;;;25.56;42.89
64200;BME280;50516;52.272;5.136;2023-06-26T11:37:58;101831.06;;;26.20;42.05
64200;BME280;50516;52.272;5.136;2023-06-26T11:40:26;101842.38;;;26.36;42.08
64200;BME280;50516;52.272;5.136;2023-06-26T11:42:57;101847.41;;;26.02;41.93
64200;BME280;50516;52.272;5.136;2023-06-26T11:45:23;101846.69;;;26.18;41.57
64200;BME280;50516;52.272;5.136;2023-06-26T11:47:49;101850.84;;;26.24;42.35
64200;BME280;50516;52.272;5.136;2023-06-26T11:50:15;101844.81;;;25.85;41.97
64200;BME280;50516;52.272;5.136;2023-06-26T11:52:42;101849.97;;;25.95;41.45
64200;BME280;50516;52.272;5.136;2023-06-26T11:55:08;101861.25;;;25.12;43.48
64200;BME280;50516;52.272;5.136;2023-06-26T11:57:33;101871.53;;;25.66;42.14
64200;BME280;50516;52.272;5.136;2023-06-26T12:00:16;101879.97;;;25.66;43.06
64200;BME280;50516;52.272;5.136;2023-06-26T12:02:43;101868.97;;;25.61;42.63
64200;BME280;50516;52.272;5.136;2023-06-26T12:05:09;101879.38;;;25.48;43.48
64200;BME280;50516;52.272;5.136;2023-06-26T12:07:35;101881.00;;;25.37;42.90
64200;BME280;50516;52.272;5.136;2023-06-26T12:10:02;101882.69;;;25.17;43.91
64200;BME280;50516;52.272;5.136;2023-06-26T12:12:31;101881.59;;;25.67;43.21
64200;BME280;50516;52.272;5.136;2023-06-26T12:14:57;101885.00;;;25.61;42.72
64200;BME280;50516;52.272;5.136;2023-06-26T12:17:23;101883.72;;;25.95;42.53
64200;BME280;50516;52.272;5.136;2023-06-26T12:19:50;101881.84;;;25.87;41.94
64200;BME280;50516;52.272;5.136;2023-06-26T12:22:19;101884.53;;;26.20;42.97
64200;BME280;50516;52.272;5.136;2023-06-26T12:24:46;101885.03;;;26.10;42.12
64200;BME280;50516;52.272;5.136;2023-06-26T12:27:14;101895.09;;;25.86;43.05
64200;BME280;50516;52.272;5.136;2023-06-26T12:29:49;101904.13;;;26.29;42.81
64200;BME280;50516;52.272;5.136;2023-06-26T12:32:16;101908.00;;;26.00;43.19
64200;BME280;50516;52.272;5.136;2023-06-26T12:34:41;101902.88;;;25.31;44.32
64200;BME280;50516;52.272;5.136;2023-06-26T12:37:08;101906.75;;;25.06;45.42
64200;BME280;50516;52.272;5.136;2023-06-26T12:39:47;101910.94;;;24.87;46.22
64200;BME280;50516;52.272;5.136;2023-06-26T12:42:18;101911.91;;;25.04;45.72
64200;BME280;50516;52.272;5.136;2023-06-26T12:44:44;101919.53;;;25.03;45.39
64200;BME280;50516;52.272;5.136;2023-06-26T12:47:09;101916.38;;;24.84;46.21
64200;BME280;50516;52.272;5.136;2023-06-26T12:49:40;101914.44;;;25.88;44.17
64200;BME280;50516;52.272;5.136;2023-06-26T12:52:11;101925.63;;;25.97;44.80
64200;BME280;50516;52.272;5.136;2023-06-26T12:54:38;101930.66;;;26.03;44.45
64200;BME280;50516;52.272;5.136;2023-06-26T12:57:05;101924.28;;;25.82;45.51
64200;BME280;50516;52.272;5.136;2023-06-26T12:59:37;101926.16;;;25.65;45.96
64200;BME280;50516;52.272;5.136;2023-06-26T13:02:03;101926.91;;;25.08;46.33
64200;BME280;50516;52.272;5.136;2023-06-26T13:04:28;101922.88;;;24.96;45.61
64200;BME280;50516;52.272;5.136;2023-06-26T13:06:54;101929.56;;;24.71;46.64